createdAt,value
2016-12-14T04:01:00.432Z,1023.62
2016-12-14T04:01:26.003Z,1023.62
2016-12-14T04:01:51.571Z,1023.65
2016-12-14T04:02:17.155Z,1023.64
2016-12-14T04:02:42.805Z,1023.67
2016-12-14T04:03:08.351Z,1023.66
2016-12-14T04:03:33.900Z,1023.67
2016-12-14T04:03:59.525Z,1023.67
2016-12-14T04:04:25.091Z,1023.66
2016-12-14T04:04:50.647Z,1023.66
2016-12-14T04:05:16.200Z,1023.67
2016-12-14T04:05:41.780Z,1023.65
2016-12-14T04:06:07.340Z,1023.68
2016-12-14T04:06:32.930Z,1023.7
2016-12-14T04:06:58.484Z,1023.66
2016-12-14T04:07:24.125Z,1023.71
2016-12-14T04:07:49.675Z,1023.68
2016-12-14T04:08:15.249Z,1023.68
2016-12-14T04:08:40.843Z,1023.68
2016-12-14T04:09:06.480Z,1023.68
2016-12-14T04:09:32.025Z,1023.65
2016-12-14T04:09:57.595Z,1023.69
2016-12-14T04:10:23.173Z,1023.68
2016-12-14T04:10:48.722Z,1023.67
2016-12-14T04:11:14.316Z,1023.7
2016-12-14T04:11:39.911Z,1023.66
2016-12-14T04:12:05.471Z,1023.68
2016-12-14T04:12:31.125Z,1023.67
2016-12-14T04:12:56.680Z,1023.68
2016-12-14T04:13:22.247Z,1023.68
2016-12-14T04:13:47.959Z,1023.68
2016-12-14T04:14:13.535Z,1023.64
2016-12-14T04:14:39.138Z,1023.65
2016-12-14T04:15:04.722Z,1023.62
2016-12-14T04:15:30.271Z,1023.63
2016-12-14T04:15:55.826Z,1023.6
2016-12-14T04:16:21.396Z,1023.67
2016-12-14T04:16:47.059Z,1023.61
2016-12-14T04:17:12.624Z,1023.59
2016-12-14T04:17:38.233Z,1023.62
2016-12-14T04:18:03.794Z,1023.66
2016-12-14T04:18:29.346Z,1023.63
2016-12-14T04:18:54.898Z,1023.63
2016-12-14T04:19:20.477Z,1023.67
2016-12-14T04:19:46.024Z,1023.66
2016-12-14T04:20:11.591Z,1023.64
2016-12-14T04:20:37.260Z,1023.66
2016-12-14T04:21:02.825Z,1023.63
2016-12-14T04:21:28.381Z,1023.68
2016-12-14T04:21:53.936Z,1023.64
2016-12-14T04:22:19.569Z,1023.67
2016-12-14T04:22:45.135Z,1023.68
2016-12-14T04:23:10.694Z,1023.66
2016-12-14T04:23:36.257Z,1023.66
2016-12-14T04:24:01.807Z,1023.69
2016-12-14T04:24:27.420Z,1023.67
2016-12-14T04:24:52.982Z,1023.73
2016-12-14T04:25:18.549Z,1023.74
2016-12-14T04:25:44.223Z,1023.67
2016-12-14T04:26:09.802Z,1023.68
2016-12-14T04:26:35.416Z,1023.7
2016-12-14T04:27:00.976Z,1023.69
2016-12-14T04:27:26.544Z,1023.68
2016-12-14T04:27:52.100Z,1023.68
2016-12-14T04:28:17.660Z,1023.7
2016-12-14T04:28:43.223Z,1023.69
2016-12-14T04:29:08.828Z,1023.68
2016-12-14T04:29:34.463Z,1023.68
2016-12-14T04:30:00.031Z,1023.67
2016-12-14T04:30:25.591Z,1023.67
2016-12-14T04:30:51.139Z,1023.63
2016-12-14T04:31:16.693Z,1023.65
2016-12-14T04:31:42.256Z,1023.64
2016-12-14T04:32:07.983Z,1023.64
2016-12-14T04:32:33.553Z,1023.65
2016-12-14T04:32:59.125Z,1023.65
2016-12-14T04:33:24.681Z,1023.6
2016-12-14T04:33:50.293Z,1023.65
2016-12-14T04:34:15.836Z,1023.63
2016-12-14T04:34:41.421Z,1023.64
2016-12-14T04:35:06.980Z,1023.71
2016-12-14T04:35:32.571Z,1023.65
2016-12-14T04:35:58.206Z,1023.67
2016-12-14T04:36:23.748Z,1023.67
2016-12-14T04:36:49.297Z,1023.68
2016-12-14T04:37:14.977Z,1023.64
2016-12-14T04:37:40.540Z,1023.65
2016-12-14T04:38:06.116Z,1023.66
2016-12-14T04:38:31.673Z,1023.63
2016-12-14T04:38:57.426Z,1023.66
2016-12-14T04:39:22.989Z,1023.7
2016-12-14T04:39:48.555Z,1023.72
2016-12-14T04:40:14.164Z,1023.7
2016-12-14T04:40:39.743Z,1023.73
2016-12-14T04:41:05.311Z,1023.72
2016-12-14T04:41:30.876Z,1023.7
2016-12-14T04:41:56.423Z,1023.72
2016-12-14T04:42:21.961Z,1023.72
2016-12-14T04:42:47.529Z,1023.69
2016-12-14T04:43:13.064Z,1023.71
2016-12-14T04:43:38.627Z,1023.7
2016-12-14T04:44:04.192Z,1023.73
2016-12-14T04:44:29.752Z,1023.71
2016-12-14T04:44:55.354Z,1023.74
2016-12-14T04:45:20.887Z,1023.73
2016-12-14T04:45:46.451Z,1023.68
2016-12-14T04:46:12.010Z,1023.74
2016-12-14T04:46:37.574Z,1023.69
2016-12-14T04:47:03.148Z,1023.7
2016-12-14T04:47:28.705Z,1023.69
2016-12-14T04:47:54.271Z,1023.72
2016-12-14T04:48:19.835Z,1023.72
2016-12-14T04:48:45.469Z,1023.71
2016-12-14T04:49:11.030Z,1023.75
2016-12-14T04:49:36.587Z,1023.72
2016-12-14T04:50:02.149Z,1023.76
2016-12-14T04:50:27.705Z,1023.77
2016-12-14T04:50:53.300Z,1023.76
2016-12-14T04:51:18.852Z,1023.77
2016-12-14T04:51:44.408Z,1023.79
2016-12-14T04:52:09.987Z,1023.81
2016-12-14T04:52:35.581Z,1023.84
2016-12-14T04:53:01.145Z,1023.81
2016-12-14T04:53:26.689Z,1023.79
2016-12-14T04:53:52.250Z,1023.82
2016-12-14T04:54:17.811Z,1023.8
2016-12-14T04:54:43.478Z,1023.84
2016-12-14T04:55:09.044Z,1023.87
2016-12-14T04:55:34.612Z,1023.86
2016-12-14T04:56:00.277Z,1023.86
2016-12-14T04:56:25.837Z,1023.91
2016-12-14T04:56:51.396Z,1023.87
2016-12-14T04:57:17.080Z,1023.9
2016-12-14T04:57:42.662Z,1023.94
2016-12-14T04:58:08.221Z,1023.91
2016-12-14T04:58:33.875Z,1023.91
2016-12-14T04:58:59.498Z,1023.95
2016-12-14T04:59:25.057Z,1023.93
2016-12-14T04:59:50.655Z,1023.9
2016-12-14T05:00:16.280Z,1023.96
2016-12-14T05:00:41.835Z,1023.94
2016-12-14T05:01:07.384Z,1023.93
2016-12-14T05:01:33.103Z,1023.95
2016-12-14T05:01:58.688Z,1023.95
2016-12-14T05:02:24.251Z,1023.94
2016-12-14T05:02:49.805Z,1023.93
2016-12-14T05:03:15.370Z,1023.96
2016-12-14T05:03:40.999Z,1023.99
2016-12-14T05:04:06.554Z,1023.95
2016-12-14T05:04:32.117Z,1024
2016-12-14T05:04:57.671Z,1023.95
2016-12-14T05:05:23.219Z,1023.99
2016-12-14T05:05:48.797Z,1023.97
2016-12-14T05:06:14.359Z,1023.98
2016-12-14T05:06:39.912Z,1024
2016-12-14T05:07:05.487Z,1023.98
2016-12-14T05:07:31.042Z,1023.96
2016-12-14T05:07:56.647Z,1023.95
2016-12-14T05:08:22.202Z,1023.98
2016-12-14T05:08:47.751Z,1023.96
2016-12-14T05:09:13.439Z,1024
2016-12-14T05:09:39.021Z,1023.98
2016-12-14T05:10:04.592Z,1023.96
2016-12-14T05:10:30.177Z,1024
2016-12-14T05:10:55.739Z,1023.98
2016-12-14T05:11:21.308Z,1023.98
2016-12-14T05:12:34.873Z,1024
2016-12-14T05:13:00.427Z,1024.01
2016-12-14T05:13:26.028Z,1024.03
2016-12-14T05:13:51.593Z,1023.99
2016-12-14T05:14:17.233Z,1024
2016-12-14T05:14:42.888Z,1024.03
2016-12-14T05:15:08.455Z,1024.01
2016-12-14T05:15:34.005Z,1024.04
2016-12-14T05:15:59.563Z,1024.01
2016-12-14T05:16:25.110Z,1024.01
2016-12-14T05:16:50.676Z,1024.06
2016-12-14T05:17:16.236Z,1023.98
2016-12-14T05:17:41.881Z,1024.04
2016-12-14T05:18:07.432Z,1024.01
2016-12-14T05:18:32.984Z,1024.01
2016-12-14T05:18:58.547Z,1024.02
2016-12-14T05:19:24.222Z,1024.01
2016-12-14T05:19:49.771Z,1023.99
2016-12-14T05:20:15.321Z,1024.02
2016-12-14T05:20:40.862Z,1024.03
2016-12-14T05:21:06.416Z,1024.01
2016-12-14T05:21:31.977Z,1024.04
2016-12-14T05:21:57.568Z,1024
2016-12-14T05:22:23.126Z,1024.02
2016-12-14T05:22:48.772Z,1024.04
2016-12-14T05:23:14.322Z,1024.02
2016-12-14T05:23:39.877Z,1024.05
2016-12-14T05:24:05.441Z,1024.05
2016-12-14T05:24:30.985Z,1024.04
2016-12-14T05:24:56.595Z,1024.09
2016-12-14T05:25:22.177Z,1024.06
2016-12-14T05:25:47.736Z,1024
2016-12-14T05:26:13.289Z,1024.03
2016-12-14T05:26:38.920Z,1024.04
2016-12-14T05:27:04.459Z,1024.03
2016-12-14T05:27:30.024Z,1024.05
2016-12-14T05:27:55.569Z,1024.04
2016-12-14T05:28:21.111Z,1024.04
2016-12-14T05:28:46.727Z,1024.07
2016-12-14T05:29:12.342Z,1024.03
2016-12-14T05:29:37.905Z,1024.05
2016-12-14T05:30:03.456Z,1024.07
2016-12-14T05:30:29.120Z,1024.06
2016-12-14T05:30:54.658Z,1024.03
2016-12-14T05:31:20.204Z,1024.04
2016-12-14T05:31:45.745Z,1024.04
2016-12-14T05:32:11.329Z,1024.05
2016-12-14T05:32:36.879Z,1024.05
2016-12-14T05:33:02.500Z,1024.05
2016-12-14T05:33:28.052Z,1024.06
2016-12-14T05:33:53.620Z,1024.07
2016-12-14T05:34:19.233Z,1024.08
2016-12-14T05:34:44.788Z,1024.06
2016-12-14T05:35:10.352Z,1024.1
2016-12-14T05:35:35.926Z,1024.06
2016-12-14T05:36:01.491Z,1024.08
2016-12-14T05:36:27.062Z,1024.08
2016-12-14T05:36:52.613Z,1024.08
2016-12-14T05:37:18.172Z,1024.1
2016-12-14T05:37:43.704Z,1024.11
2016-12-14T05:38:09.590Z,1024.1
2016-12-14T05:38:35.156Z,1024.09
2016-12-14T05:39:00.820Z,1024.08
2016-12-14T05:39:26.385Z,1024.09
2016-12-14T05:39:51.948Z,1024.12
2016-12-14T05:40:17.503Z,1024.08
2016-12-14T05:40:43.085Z,1024.1
2016-12-14T05:41:08.633Z,1024.09
2016-12-14T05:41:34.193Z,1024.08
2016-12-14T05:41:59.727Z,1024.06
2016-12-14T05:42:25.278Z,1024.07
2016-12-14T05:42:50.889Z,1024.06
2016-12-14T05:43:16.497Z,1024.08
2016-12-14T05:43:42.068Z,1024.11
2016-12-14T05:44:07.626Z,1024.08
2016-12-14T05:44:33.179Z,1024.1
2016-12-14T05:44:58.727Z,1024.07
2016-12-14T05:45:24.289Z,1024.1
2016-12-14T05:45:49.854Z,1024.1
2016-12-14T05:46:15.419Z,1024.11
2016-12-14T05:46:40.954Z,1024.14
2016-12-14T05:47:06.596Z,1024.08
2016-12-14T05:47:32.148Z,1024.11
2016-12-14T05:47:57.834Z,1024.14
2016-12-14T05:48:23.427Z,1024.12
2016-12-14T05:48:48.969Z,1024.15
2016-12-14T05:49:14.531Z,1024.19
2016-12-14T05:49:40.271Z,1024.19
2016-12-14T05:50:05.830Z,1024.11
2016-12-14T05:50:31.398Z,1024.15
2016-12-14T05:50:56.972Z,1024.16
2016-12-14T05:51:22.534Z,1024.18
2016-12-14T05:51:48.097Z,1024.17
2016-12-14T05:52:13.649Z,1024.16
2016-12-14T05:52:39.219Z,1024.15
2016-12-14T05:53:04.766Z,1024.17
2016-12-14T05:53:30.365Z,1024.15
2016-12-14T05:53:55.925Z,1024.14
2016-12-14T05:54:21.463Z,1024.08
2016-12-14T05:54:47.173Z,1024.09
2016-12-14T05:55:12.747Z,1024.11
2016-12-14T05:55:38.315Z,1024.1
2016-12-14T05:56:03.957Z,1024.15
2016-12-14T05:56:29.521Z,1024.12
2016-12-14T05:56:55.067Z,1024.12
2016-12-14T05:57:20.633Z,1024.13
2016-12-14T05:57:46.190Z,1024.17
2016-12-14T05:58:11.754Z,1024.12
2016-12-14T05:58:37.358Z,1024.12
2016-12-14T05:59:02.985Z,1024.16
2016-12-14T05:59:28.557Z,1024.13
2016-12-14T05:59:54.116Z,1024.11
2016-12-14T06:00:57.408Z,1024.14
2016-12-14T06:01:22.960Z,1024.13
2016-12-14T06:01:48.511Z,1024.1
2016-12-14T06:02:14.125Z,1024.12
2016-12-14T06:02:39.712Z,1024.13
2016-12-14T06:03:05.262Z,1024.12
2016-12-14T06:03:30.887Z,1024.11
2016-12-14T06:03:56.623Z,1024.17
2016-12-14T06:04:22.176Z,1024.17
2016-12-14T06:04:47.735Z,1024.2
2016-12-14T06:05:13.288Z,1024.21
2016-12-14T06:05:38.845Z,1024.24
2016-12-14T06:06:04.405Z,1024.25
2016-12-14T06:06:29.973Z,1024.22
2016-12-14T06:06:55.518Z,1024.24
2016-12-14T06:07:21.109Z,1024.23
2016-12-14T06:07:46.663Z,1024.29
2016-12-14T06:08:12.224Z,1024.25
2016-12-14T06:08:37.784Z,1024.28
2016-12-14T06:09:03.333Z,1024.29
2016-12-14T06:09:28.894Z,1024.28
2016-12-14T06:09:54.501Z,1024.28
2016-12-14T06:10:20.054Z,1024.31
2016-12-14T06:10:45.611Z,1024.32
2016-12-14T06:11:11.285Z,1024.26
2016-12-14T06:11:36.837Z,1024.28
2016-12-14T06:12:02.392Z,1024.3
2016-12-14T06:12:28.041Z,1024.27
2016-12-14T06:12:53.595Z,1024.31
2016-12-14T06:13:19.141Z,1024.31
2016-12-14T06:13:44.805Z,1024.32
2016-12-14T06:14:10.377Z,1024.28
2016-12-14T06:14:35.991Z,1024.27
2016-12-14T06:15:01.527Z,1024.29
2016-12-14T06:15:27.097Z,1024.25
2016-12-14T06:15:52.664Z,1024.26
2016-12-14T06:16:18.280Z,1024.26
2016-12-14T06:16:43.849Z,1024.25
2016-12-14T06:17:09.394Z,1024.29
2016-12-14T06:17:34.974Z,1024.25
2016-12-14T06:18:00.536Z,1024.25
2016-12-14T06:18:26.109Z,1024.2
2016-12-14T06:18:51.650Z,1024.24
2016-12-14T06:19:17.214Z,1024.22
2016-12-14T06:19:42.754Z,1024.22
2016-12-14T06:20:08.325Z,1024.23
2016-12-14T06:20:33.890Z,1024.21
2016-12-14T06:20:59.445Z,1024.23
2016-12-14T06:21:24.997Z,1024.21
2016-12-14T06:21:50.555Z,1024.18
2016-12-14T06:22:16.170Z,1024.2
2016-12-14T06:22:41.796Z,1024.26
2016-12-14T06:23:07.688Z,1024.25
2016-12-14T06:23:33.019Z,1024.24
2016-12-14T06:23:58.632Z,1024.25
2016-12-14T06:24:24.196Z,1024.25
2016-12-14T06:24:49.774Z,1024.28
2016-12-14T06:25:15.978Z,1024.26
2016-12-14T06:25:41.530Z,1024.29
2016-12-14T06:26:07.108Z,1024.21
2016-12-14T06:26:32.683Z,1024.23
2016-12-14T06:26:58.246Z,1024.24
2016-12-14T06:27:23.905Z,1024.24
2016-12-14T06:27:49.457Z,1024.2
2016-12-14T06:28:15.014Z,1024.22
2016-12-14T06:28:40.597Z,1024.24
2016-12-14T06:29:06.300Z,1024.24
2016-12-14T06:29:31.856Z,1024.19
2016-12-14T06:29:57.436Z,1024.19
2016-12-14T06:30:23.039Z,1024.23
2016-12-14T06:30:48.617Z,1024.23
2016-12-14T06:31:14.164Z,1024.25
2016-12-14T06:31:39.725Z,1024.21
2016-12-14T06:32:05.305Z,1024.25
2016-12-14T06:32:30.867Z,1024.27
2016-12-14T06:32:56.425Z,1024.3
2016-12-14T06:33:21.984Z,1024.28
2016-12-14T06:33:47.552Z,1024.32
2016-12-14T06:34:13.245Z,1024.31
2016-12-14T06:34:38.829Z,1024.28
2016-12-14T06:35:04.380Z,1024.32
2016-12-14T06:35:29.941Z,1024.33
2016-12-14T06:35:55.508Z,1024.36
2016-12-14T06:36:21.064Z,1024.39
2016-12-14T06:36:46.693Z,1024.34
2016-12-14T06:37:12.257Z,1024.36
2016-12-14T06:37:37.826Z,1024.36
2016-12-14T06:38:03.410Z,1024.37
2016-12-14T06:38:28.981Z,1024.31
2016-12-14T06:38:54.537Z,1024.31
2016-12-14T06:39:20.236Z,1024.31
2016-12-14T06:39:45.830Z,1024.3
2016-12-14T06:40:11.381Z,1024.33
2016-12-14T06:40:36.938Z,1024.31
2016-12-14T06:41:02.506Z,1024.34
2016-12-14T06:41:28.071Z,1024.33
2016-12-14T06:41:53.646Z,1024.38
2016-12-14T06:42:19.204Z,1024.34
2016-12-14T06:42:44.764Z,1024.36
2016-12-14T06:43:10.460Z,1024.34
2016-12-14T06:43:36.042Z,1024.39
2016-12-14T06:44:01.581Z,1024.39
2016-12-14T06:44:27.231Z,1024.35
2016-12-14T06:44:52.793Z,1024.37
2016-12-14T06:45:18.344Z,1024.38
2016-12-14T06:45:43.918Z,1024.43
2016-12-14T06:46:09.478Z,1024.35
2016-12-14T06:46:35.043Z,1024.37
2016-12-14T06:47:00.608Z,1024.39
2016-12-14T06:47:26.164Z,1024.38
2016-12-14T06:47:51.846Z,1024.36
2016-12-14T06:48:17.419Z,1024.36
2016-12-14T06:48:42.977Z,1024.38
2016-12-14T06:49:08.537Z,1024.4
2016-12-14T06:49:34.199Z,1024.4
2016-12-14T06:49:59.780Z,1024.43
2016-12-14T06:50:25.338Z,1024.38
2016-12-14T06:50:51.027Z,1024.38
2016-12-14T06:51:16.603Z,1024.4
2016-12-14T06:51:42.183Z,1024.39
2016-12-14T06:52:07.729Z,1024.42
2016-12-14T06:52:33.403Z,1024.34
2016-12-14T06:52:58.966Z,1024.36
2016-12-14T06:53:24.510Z,1024.37
2016-12-14T06:53:50.198Z,1024.34
2016-12-14T06:54:15.746Z,1024.34
2016-12-14T06:54:41.304Z,1024.35
2016-12-14T06:55:06.860Z,1024.35
2016-12-14T06:55:32.433Z,1024.35
2016-12-14T06:55:58.023Z,1024.36
2016-12-14T06:56:23.573Z,1024.38
2016-12-14T06:56:49.121Z,1024.39
2016-12-14T06:57:14.689Z,1024.36
2016-12-14T06:57:40.398Z,1024.38
2016-12-14T06:58:05.959Z,1024.35
2016-12-14T06:58:31.520Z,1024.37
2016-12-14T06:58:57.185Z,1024.39
2016-12-14T06:59:22.733Z,1024.43
2016-12-14T06:59:48.302Z,1024.41
2016-12-14T07:00:13.887Z,1024.47
2016-12-14T07:01:27.369Z,1024.52
2016-12-14T07:01:52.911Z,1024.54
2016-12-14T07:02:18.473Z,1024.53
2016-12-14T07:02:44.061Z,1024.52
2016-12-14T07:03:09.628Z,1024.51
2016-12-14T07:03:35.180Z,1024.54
2016-12-14T07:04:00.769Z,1024.5
2016-12-14T07:04:26.336Z,1024.49
2016-12-14T07:04:51.907Z,1024.51
2016-12-14T07:05:17.552Z,1024.49
2016-12-14T07:05:43.120Z,1024.52
2016-12-14T07:06:08.718Z,1024.49
2016-12-14T07:06:34.363Z,1024.46
2016-12-14T07:06:59.959Z,1024.49
2016-12-14T07:07:25.517Z,1024.48
2016-12-14T07:07:51.077Z,1024.53
2016-12-14T07:08:16.635Z,1024.52
2016-12-14T07:08:42.189Z,1024.51
2016-12-14T07:09:07.756Z,1024.49
2016-12-14T07:09:33.342Z,1024.5
2016-12-14T07:09:58.894Z,1024.52
2016-12-14T07:10:24.550Z,1024.53
2016-12-14T07:10:50.108Z,1024.53
2016-12-14T07:11:15.659Z,1024.55
2016-12-14T07:11:41.222Z,1024.52
2016-12-14T07:12:06.787Z,1024.55
2016-12-14T07:12:32.346Z,1024.53
2016-12-14T07:12:57.907Z,1024.51
2016-12-14T07:13:23.451Z,1024.49
2016-12-14T07:13:49.086Z,1024.51
2016-12-14T07:14:14.729Z,1024.46
2016-12-14T07:14:40.262Z,1024.5
2016-12-14T07:15:05.828Z,1024.44
2016-12-14T07:15:31.383Z,1024.43
2016-12-14T07:15:56.943Z,1024.43
2016-12-14T07:16:22.536Z,1024.49
2016-12-14T07:16:48.099Z,1024.47
2016-12-14T07:17:13.656Z,1024.46
2016-12-14T07:17:39.208Z,1024.47
2016-12-14T07:18:04.827Z,1024.52
2016-12-14T07:18:30.393Z,1024.49
2016-12-14T07:18:56.043Z,1024.5
2016-12-14T07:19:21.653Z,1024.47
2016-12-14T07:19:47.207Z,1024.53
2016-12-14T07:20:12.776Z,1024.48
2016-12-14T07:20:38.337Z,1024.48
2016-12-14T07:21:03.924Z,1024.52
2016-12-14T07:21:29.489Z,1024.54
2016-12-14T07:21:55.038Z,1024.59
2016-12-14T07:22:20.590Z,1024.57
2016-12-14T07:22:46.166Z,1024.57
2016-12-14T07:23:11.716Z,1024.58
2016-12-14T07:23:37.292Z,1024.59
2016-12-14T07:24:02.842Z,1024.57
2016-12-14T07:24:28.404Z,1024.6
2016-12-14T07:24:53.966Z,1024.57
2016-12-14T07:25:19.589Z,1024.57
2016-12-14T07:25:45.139Z,1024.56
2016-12-14T07:26:10.687Z,1024.56
2016-12-14T07:26:36.390Z,1024.62
2016-12-14T07:27:01.934Z,1024.58
2016-12-14T07:27:27.489Z,1024.58
2016-12-14T07:27:53.026Z,1024.57
2016-12-14T07:28:18.583Z,1024.57
2016-12-14T07:28:44.192Z,1024.6
2016-12-14T07:29:09.741Z,1024.58
2016-12-14T07:29:35.294Z,1024.61
2016-12-14T07:30:00.969Z,1024.6
2016-12-14T07:30:26.623Z,1024.57
2016-12-14T07:30:52.179Z,1024.6
2016-12-14T07:31:17.766Z,1024.61
2016-12-14T07:31:43.365Z,1024.62
2016-12-14T07:32:08.934Z,1024.61
2016-12-14T07:32:34.482Z,1024.61
2016-12-14T07:33:00.188Z,1024.62
2016-12-14T07:33:25.806Z,1024.57
2016-12-14T07:33:51.362Z,1024.6
2016-12-14T07:34:17.029Z,1024.56
2016-12-14T07:34:42.603Z,1024.54
2016-12-14T07:35:08.169Z,1024.56
2016-12-14T07:35:33.711Z,1024.57
2016-12-14T07:35:59.422Z,1024.57
2016-12-14T07:36:24.977Z,1024.57
2016-12-14T07:36:50.540Z,1024.58
2016-12-14T07:37:16.165Z,1024.56
2016-12-14T07:37:41.784Z,1024.56
2016-12-14T07:38:07.325Z,1024.55
2016-12-14T07:38:33.054Z,1024.55
2016-12-14T07:38:58.616Z,1024.62
2016-12-14T07:39:24.229Z,1024.58
2016-12-14T07:39:49.789Z,1024.6
2016-12-14T07:40:15.420Z,1024.59
2016-12-14T07:40:40.982Z,1024.56
2016-12-14T07:41:06.557Z,1024.59
2016-12-14T07:41:32.128Z,1024.6
2016-12-14T07:41:57.688Z,1024.62
2016-12-14T07:42:23.259Z,1024.65
2016-12-14T07:42:48.981Z,1024.63
2016-12-14T07:43:14.561Z,1024.62
2016-12-14T07:43:40.125Z,1024.64
2016-12-14T07:44:05.691Z,1024.64
2016-12-14T07:44:31.249Z,1024.63
2016-12-14T07:44:56.922Z,1024.6
2016-12-14T07:45:22.485Z,1024.59
2016-12-14T07:45:48.045Z,1024.62
2016-12-14T07:46:13.613Z,1024.61
2016-12-14T07:46:39.216Z,1024.61
2016-12-14T07:47:04.765Z,1024.63
2016-12-14T07:47:30.312Z,1024.61
2016-12-14T07:47:55.944Z,1024.64
2016-12-14T07:48:21.546Z,1024.63
2016-12-14T07:48:47.101Z,1024.62
2016-12-14T07:49:12.665Z,1024.61
2016-12-14T07:49:38.208Z,1024.66
2016-12-14T07:50:03.777Z,1024.61
2016-12-14T07:50:29.381Z,1024.67
2016-12-14T07:50:54.942Z,1024.68
2016-12-14T07:51:20.491Z,1024.63
2016-12-14T07:51:46.062Z,1024.65
2016-12-14T07:52:11.736Z,1024.69
2016-12-14T07:52:37.297Z,1024.71
2016-12-14T07:53:02.939Z,1024.7
2016-12-14T07:53:28.471Z,1024.74
2016-12-14T07:53:54.046Z,1024.68
2016-12-14T07:54:19.597Z,1024.71
2016-12-14T07:54:45.160Z,1024.73
2016-12-14T07:55:10.717Z,1024.75
2016-12-14T07:55:36.360Z,1024.75
2016-12-14T07:56:01.913Z,1024.75
2016-12-14T07:56:27.464Z,1024.71
2016-12-14T07:56:53.014Z,1024.75
2016-12-14T07:57:18.662Z,1024.76
2016-12-14T07:57:44.223Z,1024.8
2016-12-14T07:58:09.929Z,1024.8
2016-12-14T07:58:35.589Z,1024.79
2016-12-14T07:59:01.148Z,1024.81
2016-12-14T07:59:26.769Z,1024.79
2016-12-14T07:59:52.366Z,1024.78
2016-12-14T08:00:17.917Z,1024.77
2016-12-14T08:00:43.467Z,1024.81
2016-12-14T08:01:09.204Z,1024.83
2016-12-14T08:01:34.748Z,1024.78
2016-12-14T08:02:00.325Z,1024.78
2016-12-14T08:02:25.898Z,1024.82
2016-12-14T08:02:51.533Z,1024.8
2016-12-14T08:03:17.078Z,1024.78
2016-12-14T08:03:42.636Z,1024.72
2016-12-14T08:04:08.321Z,1024.77
2016-12-14T08:04:33.871Z,1024.75
2016-12-14T08:04:59.443Z,1024.75
2016-12-14T08:05:24.984Z,1024.76
2016-12-14T08:05:50.741Z,1024.78
2016-12-14T08:06:16.289Z,1024.79
2016-12-14T08:06:41.856Z,1024.78
2016-12-14T08:07:07.427Z,1024.76
2016-12-14T08:07:32.971Z,1024.78
2016-12-14T08:07:58.545Z,1024.77
2016-12-14T08:08:24.136Z,1024.77
2016-12-14T08:08:49.703Z,1024.75
2016-12-14T08:09:15.272Z,1024.8
2016-12-14T08:09:40.871Z,1024.78
2016-12-14T08:10:06.451Z,1024.77
2016-12-14T08:10:32.136Z,1024.79
2016-12-14T08:10:57.715Z,1024.76
2016-12-14T08:11:23.281Z,1024.83
2016-12-14T08:11:48.919Z,1024.83
2016-12-14T08:12:14.569Z,1024.82
2016-12-14T08:12:40.128Z,1024.85
2016-12-14T08:13:05.670Z,1024.78
2016-12-14T08:13:31.229Z,1024.83
2016-12-14T08:13:56.775Z,1024.81
2016-12-14T08:14:22.355Z,1024.81
2016-12-14T08:14:47.925Z,1024.81
2016-12-14T08:15:13.497Z,1024.82
2016-12-14T08:15:39.041Z,1024.8
2016-12-14T08:16:04.631Z,1024.85
2016-12-14T08:16:30.171Z,1024.81
2016-12-14T08:16:55.733Z,1024.8
2016-12-14T08:17:21.292Z,1024.78
2016-12-14T08:17:46.838Z,1024.84
2016-12-14T08:18:12.483Z,1024.84
2016-12-14T08:18:38.041Z,1024.81
2016-12-14T08:19:03.639Z,1024.77
2016-12-14T08:19:29.295Z,1024.83
2016-12-14T08:19:54.845Z,1024.87
2016-12-14T08:20:20.416Z,1024.87
2016-12-14T08:20:46.097Z,1024.83
2016-12-14T08:21:11.660Z,1024.89
2016-12-14T08:21:37.217Z,1024.85
2016-12-14T08:22:02.822Z,1024.88
2016-12-14T08:22:28.435Z,1024.91
2016-12-14T08:22:53.995Z,1024.94
2016-12-14T08:23:19.550Z,1024.92
2016-12-14T08:23:45.099Z,1024.94
2016-12-14T08:24:10.649Z,1024.95
2016-12-14T08:24:36.276Z,1024.95
2016-12-14T08:25:01.926Z,1024.99
2016-12-14T08:25:27.489Z,1024.97
2016-12-14T08:25:53.094Z,1025.03
2016-12-14T08:26:18.646Z,1025
2016-12-14T08:26:44.233Z,1024.98
2016-12-14T08:27:09.882Z,1024.98
2016-12-14T08:27:35.499Z,1024.99
2016-12-14T08:28:01.053Z,1024.98
2016-12-14T08:28:26.599Z,1024.99
2016-12-14T08:28:52.316Z,1024.95
2016-12-14T08:29:17.873Z,1024.96
2016-12-14T08:29:43.444Z,1024.98
2016-12-14T08:30:09.095Z,1024.98
2016-12-14T08:30:34.686Z,1025.01
2016-12-14T08:31:00.246Z,1025.05
2016-12-14T08:31:25.812Z,1025.05
2016-12-14T08:31:51.462Z,1025.03
2016-12-14T08:32:17.021Z,1025.05
2016-12-14T08:32:42.679Z,1025.04
2016-12-14T08:33:08.303Z,1025.07
2016-12-14T08:33:33.955Z,1025.09
2016-12-14T08:33:59.523Z,1025.1
2016-12-14T08:34:25.082Z,1025.05
2016-12-14T08:34:50.721Z,1025.07
2016-12-14T08:35:16.266Z,1025.07
2016-12-14T08:35:41.847Z,1025.07
2016-12-14T08:36:07.551Z,1025.08
2016-12-14T08:36:33.114Z,1025.08
2016-12-14T08:36:58.676Z,1025.08
2016-12-14T08:37:24.293Z,1025.06
2016-12-14T08:37:49.847Z,1025.04
2016-12-14T08:38:15.398Z,1025.03
2016-12-14T08:38:40.970Z,1025.04
2016-12-14T08:39:06.535Z,1025.02
2016-12-14T08:39:32.101Z,1025.01
2016-12-14T08:39:57.741Z,1025.02
2016-12-14T08:40:23.231Z,1025.04
2016-12-14T08:40:48.876Z,1024.98
2016-12-14T08:41:14.457Z,1025.04
2016-12-14T08:41:40.046Z,1025.06
2016-12-14T08:42:05.609Z,1025.05
2016-12-14T08:42:31.298Z,1025.03
2016-12-14T08:42:56.849Z,1025.06
2016-12-14T08:43:22.408Z,1025.09
2016-12-14T08:43:47.952Z,1025.05
2016-12-14T08:44:13.528Z,1025.04
2016-12-14T08:44:39.088Z,1025.06
2016-12-14T08:45:04.664Z,1025.06
2016-12-14T08:45:30.233Z,1025.13
2016-12-14T08:45:55.873Z,1025.13
2016-12-14T08:46:21.489Z,1025.12
2016-12-14T08:46:47.046Z,1025.11
2016-12-14T08:47:12.608Z,1025.13
2016-12-14T08:47:38.179Z,1025.11
2016-12-14T08:48:03.829Z,1025.14
2016-12-14T08:48:29.398Z,1025.17
2016-12-14T08:48:54.963Z,1025.12
2016-12-14T08:49:20.554Z,1025.19
2016-12-14T08:49:46.109Z,1025.15
2016-12-14T08:50:11.679Z,1025.14
2016-12-14T08:50:37.246Z,1025.14
2016-12-14T08:51:02.806Z,1025.17
2016-12-14T08:51:28.367Z,1025.12
2016-12-14T08:51:53.935Z,1025.17
2016-12-14T08:52:19.503Z,1025.18
2016-12-14T08:52:45.057Z,1025.16
2016-12-14T08:53:10.615Z,1025.14
2016-12-14T08:53:36.192Z,1025.15
2016-12-14T08:54:01.801Z,1025.16
2016-12-14T08:54:27.356Z,1025.16
2016-12-14T08:54:53.013Z,1025.19
2016-12-14T08:55:18.583Z,1025.22
2016-12-14T08:55:44.152Z,1025.21
2016-12-14T08:56:09.838Z,1025.19
2016-12-14T08:56:35.381Z,1025.21
2016-12-14T08:57:00.923Z,1025.21
2016-12-14T08:57:26.486Z,1025.23
2016-12-14T08:57:52.036Z,1025.25
2016-12-14T08:58:17.597Z,1025.26
2016-12-14T08:58:43.143Z,1025.29
2016-12-14T08:59:08.702Z,1025.29
2016-12-14T08:59:34.315Z,1025.23
2016-12-14T08:59:59.862Z,1025.28
2016-12-14T09:00:25.564Z,1025.24
2016-12-14T09:00:51.124Z,1025.25
2016-12-14T09:01:16.689Z,1025.29
2016-12-14T09:01:42.276Z,1025.27
2016-12-14T09:02:07.825Z,1025.24
2016-12-14T09:02:33.391Z,1025.29
2016-12-14T09:02:58.963Z,1025.28
2016-12-14T09:03:24.513Z,1025.27
2016-12-14T09:03:50.161Z,1025.31
2016-12-14T09:04:15.782Z,1025.29
2016-12-14T09:04:41.355Z,1025.28
2016-12-14T09:05:06.922Z,1025.28
2016-12-14T09:05:32.572Z,1025.35
2016-12-14T09:05:58.915Z,1025.32
2016-12-14T09:06:24.544Z,1025.36
2016-12-14T09:06:50.093Z,1025.33
2016-12-14T09:07:15.699Z,1025.31
2016-12-14T09:07:41.313Z,1025.35
2016-12-14T09:08:06.889Z,1025.32
2016-12-14T09:08:32.487Z,1025.33
2016-12-14T09:08:58.054Z,1025.35
2016-12-14T09:09:23.632Z,1025.34
2016-12-14T09:09:49.205Z,1025.34
2016-12-14T09:10:14.759Z,1025.35
2016-12-14T09:10:40.310Z,1025.37
2016-12-14T09:11:05.884Z,1025.38
2016-12-14T09:11:31.436Z,1025.39
2016-12-14T09:11:57.073Z,1025.44
2016-12-14T09:12:22.677Z,1025.43
2016-12-14T09:12:48.233Z,1025.43
2016-12-14T09:13:13.767Z,1025.41
2016-12-14T09:13:39.475Z,1025.46